Time;durP1;ratioP1;P1;durP2;ratioP2;P2;SDS_P1;SDS_P2;PMS_P1;PMS_P2;Temp;Humidity;BMP_temperature;BMP_pressure;BME280_temperature;BME280_humidity;BME280_pressure;Samples;Min_cycle;Max_cycle;Signal;HPM_P1;HPM_P2
2022/08/03 00:00:27;;;;;;;;;;;;;;;;;;1027788;28;3436;-52
2022/08/03 00:01:07;;;;;;;;;;;;;;;;;;1029462;28;2027;-51
2022/08/03 00:01:38;;;;;;;;;;;;;;;;;;1029739;28;1890;-49
2022/08/03 00:02:09;;;;;;;;;;;;;;;;;;1029639;28;1628;-48
2022/08/03 00:02:39;;;;;;;;;;;;;;;;;;1029724;28;1991;-48
2022/08/03 00:03:09;;;;;;;;;;;;;;;;;;1028912;28;3250;-50
2022/08/03 00:03:39;;;;;;;;;;;;;;;;;;1029445;28;1793;-48
2022/08/03 00:04:10;;;;;;;;;;;;;;;;;;1030135;28;1525;-50
2022/08/03 00:04:40;;;;;;;;;;;;;;;;;;1029263;28;1987;-52
2022/08/03 00:05:10;;;;;;;;;;;;;;;;;;1027821;28;3520;-50
2022/08/03 00:05:41;;;;;;;;;;;;;;;;;;1029982;28;1886;-50
2022/08/03 00:06:11;;;;;;;;;;;;;;;;;;1029690;28;1780;-49
2022/08/03 00:06:41;;;;;;;;;;;;;;;;;;1029696;28;1704;-49
2022/08/03 00:07:18;;;;;;;;;;;;;;;;;;1029401;28;1578;-50
2022/08/03 00:07:55;;;;;;;;;;;;;;;;;;1029688;28;1933;-49
2022/08/03 00:08:32;;;;;;;;;;;;;;;;;;1029287;28;2072;-51
2022/08/03 00:09:06;;;;;;;;;;;;;;;;;;1030123;28;1725;-51
2022/08/03 00:09:36;;;;;;;;;;;;;;;;;;1033346;28;1742;-51
2022/08/03 00:10:07;;;;;;;;;;;;;;;;;;1031910;28;3090;-49
2022/08/03 00:10:37;;;;;;;;;;;;;;;;;;1032943;28;1604;-51
2022/08/03 00:11:07;;;;;;;;;;;;;;;;;;1032991;28;3198;-47
2022/08/03 00:11:38;;;;;;;;;;;;;;;;;;1029056;28;3409;-51
2022/08/03 00:12:08;;;;;;;;;;;;;;;;;;1029455;28;1656;-51
2022/08/03 00:12:38;;;;;;;;;;;;;;;;;;1030095;28;1564;-50
2022/08/03 00:13:11;;;;;;;;;;;;;;;;;;1029473;28;1729;-53
2022/08/03 00:13:42;;;;;;;;;;;;;;;;;;1029988;28;1278;-48
2022/08/03 00:14:12;;;;;;;;;;;;;;;;;;1029036;28;1706;-50
2022/08/03 00:14:48;;;;;;;;;;;;;;;;;;1029709;28;1681;-49
2022/08/03 00:15:19;;;;;;;;;;;;;;;;;;1027232;28;3817;-49
2022/08/03 00:15:49;;;;;;;;;;;;;;;;;;1032503;28;3804;-51
2022/08/03 00:16:19;;;;;;;;;;;;;;;;;;1032150;28;1601;-49
2022/08/03 00:16:49;;;;;;;;;;;;;;;;;;1030252;28;1690;-53
2022/08/03 00:17:20;;;;;;;;;;;;;;;;;;1029186;28;1820;-50
2022/08/03 00:17:50;;;;;;;;;;;;;;;;;;1029638;28;2207;-50
2022/08/03 00:18:20;;;;;;;;;;;;;;;;;;1029425;28;2365;-48
2022/08/03 00:18:51;;;;;;;;;;;;;;;;;;1030346;28;1453;-50
2022/08/03 00:19:21;;;;;;;;;;;;;;;;;;1028046;28;3228;-49
2022/08/03 00:19:51;;;;;;;;;;;;;;;;;;1029358;28;3568;-47
2022/08/03 00:20:21;;;;;;;;;;;;;;;;;;1028590;28;4900;-51
2022/08/03 00:20:52;;;;;;;;;;;;;;;;;;1029886;28;2548;-51
2022/08/03 00:21:22;;;;;;;;;;;;;;;;;;1028514;28;2674;-49
2022/08/03 00:21:52;;;;;;;;;;;;;;;;;;1028196;28;2917;-51
2022/08/03 00:22:22;;;;;;;;;;;;;;;;;;1029317;28;1710;-49
2022/08/03 00:22:53;;;;;;;;;;;;;;;;;;1030202;28;1339;-49
2022/08/03 00:23:23;;;;;;;;;;;;;;;;;;1029187;28;1765;-49
2022/08/03 00:23:53;;;;;;;;;;;;;;;;;;1030298;28;1636;-50
2022/08/03 00:24:23;;;;;;;;;;;;;;;;;;1029186;28;2013;-49
2022/08/03 00:24:54;;;;;;;;;;;;;;;;;;1030403;28;1641;-49
2022/08/03 00:25:24;;;;;;;;;;;;;;;;;;1027785;28;3291;-51
2022/08/03 00:25:54;;;;;;;;;;;;;;;;;;1030499;28;1863;-50
2022/08/03 00:26:24;;;;;;;;;;;;;;;;;;1030340;28;1973;-49
2022/08/03 00:26:55;;;;;;;;;;;;;;;;;;1028762;28;3018;-49
2022/08/03 00:27:25;;;;;;;;;;;;;;;;;;1029800;28;2151;-51
2022/08/03 00:27:55;;;;;;;;;;;;;;;;;;1030334;28;2396;-49
2022/08/03 00:28:26;;;;;;;;;;;;;;;;;;1029393;28;1608;-50
2022/08/03 00:28:56;;;;;;;;;;;;;;;;;;1029604;28;2165;-48
2022/08/03 00:29:26;;;;;;;;;;;;;;;;;;1029779;28;1362;-49
2022/08/03 00:29:57;;;;;;;;;;;;;;;;;;1029378;28;2208;-51
2022/08/03 00:30:27;;;;;;;;;;;;;;;;;;1027430;28;3381;-52
2022/08/03 00:30:57;;;;;;;;;;;;;;;;;;1029663;28;3444;-49
2022/08/03 00:31:28;;;;;;;;;;;;;;;;;;1030165;28;1793;-50
2022/08/03 00:31:58;;;;;;;;;;;;;;;;;;1029270;28;2065;-49
2022/08/03 00:32:28;;;;;;;;;;;;;;;;;;1029986;28;2571;-49
2022/08/03 00:32:59;;;;;;;;;;;;;;;;;;1027932;28;3398;-52
2022/08/03 00:33:29;;;;;;;;;;;;;;;;;;1029091;28;2524;-49
2022/08/03 00:33:59;;;;;;;;;;;;;;;;;;1032929;28;3570;-48
2022/08/03 00:34:30;;;;;;;;;;;;;;;;;;1031794;28;3450;-52
2022/08/03 00:35:00;;;;;;;;;;;;;;;;;;1032894;28;1710;-50
2022/08/03 00:35:31;;;;;;;;;;;;;;;;;;1033858;28;1712;-48
2022/08/03 00:36:01;;;;;;;;;;;;;;;;;;1029291;28;1655;-49
2022/08/03 00:36:31;;;;;;;;;;;;;;;;;;1030242;28;1699;-49
2022/08/03 00:37:02;;;;;;;;;;;;;;;;;;1029620;28;1675;-49
2022/08/03 00:37:32;;;;;;;;;;;;;;;;;;1028851;28;2588;-50
2022/08/03 00:38:02;;;;;;;;;;;;;;;;;;1029510;28;3282;-51
2022/08/03 00:38:32;;;;;;;;;;;;;;;;;;1029995;28;2106;-51
2022/08/03 00:39:03;;;;;;;;;;;;;;;;;;1031398;28;3251;-50
2022/08/03 00:39:33;;;;;;;;;;;;;;;;;;1032489;28;5097;-48
2022/08/03 00:40:04;;;;;;;;;;;;;;;;;;1032611;28;2203;-54
2022/08/03 00:40:34;;;;;;;;;;;;;;;;;;1032012;28;3371;-50
2022/08/03 00:41:04;;;;;;;;;;;;;;;;;;1029761;28;1739;-50
2022/08/03 00:41:34;;;;;;;;;;;;;;;;;;1029306;28;2682;-50
2022/08/03 00:42:05;;;;;;;;;;;;;;;;;;1029470;28;2200;-50
2022/08/03 00:42:44;;;;;;;;;;;;;;;;;;1030154;28;1705;-49
2022/08/03 00:43:15;;;;;;;;;;;;;;;;;;1028137;28;3428;-51
2022/08/03 00:43:46;;;;;;;;;;;;;;;;;;1029694;28;1450;-48
2022/08/03 00:44:16;;;;;;;;;;;;;;;;;;1029494;28;2258;-53
2022/08/03 00:44:46;;;;;;;;;;;;;;;;;;1028701;28;2886;-52
2022/08/03 00:45:17;;;;;;;;;;;;;;;;;;1027500;28;3028;-50
2022/08/03 00:45:47;;;;;;;;;;;;;;;;;;1029887;28;2075;-51
2022/08/03 00:46:17;;;;;;;;;;;;;;;;;;1029392;28;1963;-51
2022/08/03 00:46:54;;;;;;;;;;;;;;;;;;1030140;28;1598;-51
2022/08/03 00:47:24;;;;;;;;;;;;;;;;;;1029750;28;1648;-48
2022/08/03 00:47:55;;;;;;;;;;;;;;;;;;1029017;28;3080;-50
2022/08/03 00:48:25;;;;;;;;;;;;;;;;;;1029196;28;2088;-51
2022/08/03 00:48:56;;;;;;;;;;;;;;;;;;1030069;28;1211;-49
2022/08/03 00:49:26;;;;;;;;;;;;;;;;;;1029693;28;2079;-50
2022/08/03 00:49:57;;;;;;;;;;;;;;;;;;1029869;28;1628;-50
2022/08/03 00:50:28;;;;;;;;;;;;;;;;;;1029226;28;3812;-51
2022/08/03 00:50:58;;;;;;;;;;;;;;;;;;1029863;28;1738;-50
2022/08/03 00:51:29;;;;;;;;;;;;;;;;;;1029862;28;1618;-49
2022/08/03 00:52:09;;;;;;;;;;;;;;;;;;1029398;28;2314;-50
2022/08/03 00:52:40;;;;;;;;;;;;;;;;;;1029430;28;1853;-50
2022/08/03 00:53:11;;;;;;;;;;;;;;;;;;1030270;28;1561;-49
2022/08/03 00:53:42;;;;;;;;;;;;;;;;;;1029383;28;1814;-53
2022/08/03 00:54:13;;;;;;;;;;;;;;;;;;1029633;28;1602;-50
2022/08/03 00:54:43;;;;;;;;;;;;;;;;;;1028743;28;3448;-51
2022/08/03 00:55:14;;;;;;;;;;;;;;;;;;1029904;28;1720;-52
2022/08/03 00:55:44;;;;;;;;;;;;;;;;;;1029118;28;3380;-50
2022/08/03 00:56:15;;;;;;;;;;;;;;;;;;1029374;28;3522;-51
2022/08/03 00:56:46;;;;;;;;;;;;;;;;;;1029771;28;1631;-52
2022/08/03 00:57:16;;;;;;;;;;;;;;;;;;1029699;28;1849;-49
2022/08/03 00:57:46;;;;;;;;;;;;;;;;;;1029761;28;1775;-48
2022/08/03 00:58:17;;;;;;;;;;;;;;;;;;1029814;28;1629;-49
2022/08/03 00:58:47;;;;;;;;;;;;;;;;;;1029161;28;2104;-49
2022/08/03 00:59:17;;;;;;;;;;;;;;;;;;1029454;28;1831;-50
2022/08/03 00:59:48;;;;;;;;;;;;;;;;;;1028693;28;3282;-49
2022/08/03 01:00:25;;;;;;;;;;;;;;;;;;1027453;28;3353;-48
2022/08/03 01:00:55;;;;;;;;;;;;;;;;;;1029055;28;1665;-50
2022/08/03 01:01:25;;;;;;;;;;;;;;;;;;1030231;28;1633;-52
2022/08/03 01:01:56;;;;;;;;;;;;;;;;;;1028912;28;2122;-49
2022/08/03 01:02:27;;;;;;;;;;;;;;;;;;1033385;28;1958;-49
2022/08/03 01:02:57;;;;;;;;;;;;;;;;;;1031676;28;3640;-49
2022/08/03 01:03:27;;;;;;;;;;;;;;;;;;1032852;28;3775;-50
2022/08/03 01:03:58;;;;;;;;;;;;;;;;;;1032478;28;3497;-50
2022/08/03 01:04:28;;;;;;;;;;;;;;;;;;1028885;28;3331;-50
2022/08/03 01:04:58;;;;;;;;;;;;;;;;;;1028466;28;3727;-49
2022/08/03 01:05:28;;;;;;;;;;;;;;;;;;1030128;28;1671;-48
2022/08/03 01:06:11;;;;;;;;;;;;;;;;;;1029755;28;1714;-49
2022/08/03 01:07:12;;;;;;;;;;;;;;;;;;1029971;28;1626;-51
2022/08/03 01:08:04;;;;;;;;;;;;;;;;;;1026470;28;2026;-50
2022/08/03 01:09:04;;;;;;;;;;;;;;;;;;1020169;28;3260;-49
2022/08/03 01:09:44;;;;;;;;;;;;;;;;;;1020215;28;3413;-48
2022/08/03 01:10:41;;;;;;;;;;;;;;;;;;1019660;28;3739;-50
2022/08/03 01:11:23;;;;;;;;;;;;;;;;;;1022517;28;1705;-49
2022/08/03 01:11:59;;;;;;;;;;;;;;;;;;1024248;28;2893;-51
2022/08/03 01:12:54;;;;;;;;;;;;;;;;;;1025916;28;1737;-50
2022/08/03 01:13:30;;;;;;;;;;;;;;;;;;1026538;28;1782;-49
2022/08/03 01:14:08;;;;;;;;;;;;;;;;;;1027154;28;1316;-49
2022/08/03 01:14:44;;;;;;;;;;;;;;;;;;1026709;28;1404;-49
2022/08/03 01:15:19;;;;;;;;;;;;;;;;;;1025621;28;2395;-49
2022/08/03 01:15:56;;;;;;;;;;;;;;;;;;1026538;28;2807;-49
2022/08/03 01:16:28;;;;;;;;;;;;;;;;;;1026526;28;2432;-51
2022/08/03 01:17:00;;;;;;;;;;;;;;;;;;1026311;28;1629;-53
2022/08/03 01:17:33;;;;;;;;;;;;;;;;;;1026435;28;1403;-49
2022/08/03 01:18:25;;;;;;;;;;;;;;;;;;1024842;28;2954;-49
2022/08/03 01:18:56;;;;;;;;;;;;;;;;;;1024471;28;3256;-50
2022/08/03 01:19:42;;;;;;;;;;;;;;;;;;1026006;28;1714;-50
2022/08/03 01:20:13;;;;;;;;;;;;;;;;;;1025928;28;1742;-50
2022/08/03 01:20:46;;;;;;;;;;;;;;;;;;1025633;28;2622;-51
2022/08/03 01:21:23;;;;;;;;;;;;;;;;;;1025848;28;1682;-49
2022/08/03 01:22:01;;;;;;;;;;;;;;;;;;1025948;28;2138;-50
2022/08/03 01:22:50;;;;;;;;;;;;;;;;;;1026540;28;1732;-51
2022/08/03 01:23:30;;;;;;;;;;;;;;;;;;1026520;28;1927;-49
2022/08/03 01:24:06;;;;;;;;;;;;;;;;;;1022029;28;2179;-51
2022/08/03 01:24:40;;;;;;;;;;;;;;;;;;1020818;28;2926;-48
2022/08/03 01:25:10;;;;;;;;;;;;;;;;;;1020910;28;3297;-50
2022/08/03 01:25:52;;;;;;;;;;;;;;;;;;1023696;28;1791;-48
2022/08/03 01:26:41;;;;;;;;;;;;;;;;;;1026335;28;1689;-49
2022/08/03 01:27:13;;;;;;;;;;;;;;;;;;1025911;28;1654;-49
2022/08/03 01:27:56;;;;;;;;;;;;;;;;;;1023933;28;2765;-51
2022/08/03 01:28:44;;;;;;;;;;;;;;;;;;1025398;28;2355;-53
2022/08/03 01:29:17;;;;;;;;;;;;;;;;;;1026071;28;1706;-48
2022/08/03 01:29:57;;;;;;;;;;;;;;;;;;1025950;28;1625;-52
2022/08/03 01:30:29;;;;;;;;;;;;;;;;;;1024963;28;2596;-48
2022/08/03 01:31:02;;;;;;;;;;;;;;;;;;1026438;28;1893;-50
2022/08/03 01:31:37;;;;;;;;;;;;;;;;;;1023801;28;2460;-51
2022/08/03 01:32:11;;;;;;;;;;;;;;;;;;1024775;28;3291;-53
2022/08/03 01:32:57;;;;;;;;;;;;;;;;;;1023975;28;3334;-51
2022/08/03 01:33:31;;;;;;;;;;;;;;;;;;1025711;28;3787;-48
2022/08/03 01:34:03;;;;;;;;;;;;;;;;;;1026201;28;4147;-51
2022/08/03 01:34:40;;;;;;;;;;;;;;;;;;1026816;28;1660;-51
2022/08/03 01:35:12;;;;;;;;;;;;;;;;;;1022264;28;1657;-50
2022/08/03 01:35:49;;;;;;;;;;;;;;;;;;1021855;28;1738;-50
2022/08/03 01:36:21;;;;;;;;;;;;;;;;;;1021078;28;3170;-51
2022/08/03 01:36:55;;;;;;;;;;;;;;;;;;1023376;28;1871;-50
2022/08/03 01:37:30;;;;;;;;;;;;;;;;;;1026621;28;1810;-51
2022/08/03 01:38:05;;;;;;;;;;;;;;;;;;1025416;28;3630;-50
2022/08/03 01:38:40;;;;;;;;;;;;;;;;;;1025496;28;2259;-52
2022/08/03 01:39:11;;;;;;;;;;;;;;;;;;1026158;28;1767;-50
2022/08/03 01:39:42;;;;;;;;;;;;;;;;;;1025688;28;3368;-50
2022/08/03 01:40:13;;;;;;;;;;;;;;;;;;1025553;28;3299;-49
2022/08/03 01:40:45;;;;;;;;;;;;;;;;;;1025300;28;2907;-50
2022/08/03 01:41:21;;;;;;;;;;;;;;;;;;1026718;28;1675;-51
2022/08/03 01:41:59;;;;;;;;;;;;;;;;;;1025906;28;3599;-49
2022/08/03 01:42:31;;;;;;;;;;;;;;;;;;1026484;28;1705;-48
2022/08/03 01:43:03;;;;;;;;;;;;;;;;;;1024677;28;3548;-51
2022/08/03 01:43:33;;;;;;;;;;;;;;;;;;1025250;28;3305;-49
2022/08/03 01:44:06;;;;;;;;;;;;;;;;;;1026518;28;2070;-52
2022/08/03 01:44:39;;;;;;;;;;;;;;;;;;1022259;28;1724;-53
2022/08/03 01:45:11;;;;;;;;;;;;;;;;;;1021431;28;3352;-49
2022/08/03 01:45:42;;;;;;;;;;;;;;;;;;1021919;28;3515;-51
2022/08/03 01:46:13;;;;;;;;;;;;;;;;;;1022546;28;1958;-49
2022/08/03 01:46:44;;;;;;;;;;;;;;;;;;1026679;28;1774;-50
2022/08/03 01:47:14;;;;;;;;;;;;;;;;;;1024029;28;3181;-49
2022/08/03 01:47:45;;;;;;;;;;;;;;;;;;1025817;28;3837;-51
2022/08/03 01:48:16;;;;;;;;;;;;;;;;;;1026313;28;1369;-51
2022/08/03 01:48:47;;;;;;;;;;;;;;;;;;1026775;28;1652;-49
2022/08/03 01:49:17;;;;;;;;;;;;;;;;;;1022146;28;1861;-49
2022/08/03 01:49:48;;;;;;;;;;;;;;;;;;1022708;28;1454;-50
2022/08/03 01:50:23;;;;;;;;;;;;;;;;;;1021874;28;1776;-52
2022/08/03 01:50:54;;;;;;;;;;;;;;;;;;1022562;28;1744;-50
2022/08/03 01:51:25;;;;;;;;;;;;;;;;;;1025888;28;2001;-50
2022/08/03 01:51:55;;;;;;;;;;;;;;;;;;1026066;28;3341;-48
2022/08/03 01:52:26;;;;;;;;;;;;;;;;;;1025434;28;3255;-48
2022/08/03 01:52:57;;;;;;;;;;;;;;;;;;1027085;28;2226;-50
2022/08/03 01:53:28;;;;;;;;;;;;;;;;;;1025294;28;2569;-48
2022/08/03 01:53:59;;;;;;;;;;;;;;;;;;1027120;28;1659;-49
2022/08/03 01:54:29;;;;;;;;;;;;;;;;;;1025240;28;3344;-52
2022/08/03 01:55:01;;;;;;;;;;;;;;;;;;1026126;28;3377;-49
2022/08/03 01:55:33;;;;;;;;;;;;;;;;;;1025096;28;2032;-52
2022/08/03 01:56:04;;;;;;;;;;;;;;;;;;1025080;28;2755;-51
2022/08/03 01:56:35;;;;;;;;;;;;;;;;;;1026383;28;1841;-49
2022/08/03 01:57:06;;;;;;;;;;;;;;;;;;1026759;28;1694;-54
2022/08/03 01:57:38;;;;;;;;;;;;;;;;;;1025953;28;1893;-50
2022/08/03 01:58:08;;;;;;;;;;;;;;;;;;1026273;28;3319;-51
2022/08/03 01:58:39;;;;;;;;;;;;;;;;;;1026048;28;1617;-51
2022/08/03 01:59:10;;;;;;;;;;;;;;;;;;1026669;28;1660;-48
2022/08/03 01:59:41;;;;;;;;;;;;;;;;;;1026206;28;1739;-48
2022/08/03 02:00:13;;;;;;;;;;;;;;;;;;1026116;28;2291;-50
2022/08/03 02:00:43;;;;;;;;;;;;;;;;;;1025080;28;2781;-53
2022/08/03 02:01:14;;;;;;;;;;;;;;;;;;1026640;28;1300;-50
2022/08/03 02:01:46;;;;;;;;;;;;;;;;;;1026047;28;1939;-49
2022/08/03 02:02:17;;;;;;;;;;;;;;;;;;1025717;28;2722;-52
2022/08/03 02:02:54;;;;;;;;;;;;;;;;;;1026824;28;3357;-50
2022/08/03 02:03:25;;;;;;;;;;;;;;;;;;1025416;28;2829;-50
2022/08/03 02:03:57;;;;;;;;;;;;;;;;;;1026702;28;1579;-51
2022/08/03 02:04:28;;;;;;;;;;;;;;;;;;1026830;28;1715;-50
2022/08/03 02:04:59;;;;;;;;;;;;;;;;;;1025674;28;3133;-48
2022/08/03 02:05:30;;;;;;;;;;;;;;;;;;1025739;28;3310;-49
2022/08/03 02:06:01;;;;;;;;;;;;;;;;;;1026379;28;3422;-48
2022/08/03 02:06:33;;;;;;;;;;;;;;;;;;1026228;28;1441;-49
2022/08/03 02:07:04;;;;;;;;;;;;;;;;;;1026153;28;1744;-50
2022/08/03 02:07:42;;;;;;;;;;;;;;;;;;1029169;28;1817;-50
2022/08/03 02:08:20;;;;;;;;;;;;;;;;;;1029721;28;4263;-49
2022/08/03 02:08:58;;;;;;;;;;;;;;;;;;1030376;28;1673;-49
2022/08/03 02:09:30;;;;;;;;;;;;;;;;;;1030182;28;1582;-49
2022/08/03 02:10:01;;;;;;;;;;;;;;;;;;1028797;28;3383;-48
2022/08/03 02:10:32;;;;;;;;;;;;;;;;;;1032643;28;3308;-48
2022/08/03 02:11:03;;;;;;;;;;;;;;;;;;1033654;28;1644;-49
2022/08/03 02:11:34;;;;;;;;;;;;;;;;;;1033565;28;1725;-49
2022/08/03 02:12:07;;;;;;;;;;;;;;;;;;1034126;28;1821;-50
2022/08/03 02:12:38;;;;;;;;;;;;;;;;;;1030785;28;1698;-48
2022/08/03 02:13:09;;;;;;;;;;;;;;;;;;1030170;28;1828;-50
2022/08/03 02:13:39;;;;;;;;;;;;;;;;;;1030077;28;1658;-53
2022/08/03 02:14:10;;;;;;;;;;;;;;;;;;1029462;28;1660;-49
2022/08/03 02:14:42;;;;;;;;;;;;;;;;;;1029609;28;2917;-51
2022/08/03 02:15:14;;;;;;;;;;;;;;;;;;1028521;28;3413;-50
2022/08/03 02:15:45;;;;;;;;;;;;;;;;;;1030608;28;3273;-48
2022/08/03 02:16:16;;;;;;;;;;;;;;;;;;1030887;28;1710;-50
2022/08/03 02:16:47;;;;;;;;;;;;;;;;;;1030274;28;3342;-49
2022/08/03 02:17:17;;;;;;;;;;;;;;;;;;1030631;28;1795;-48
2022/08/03 02:17:49;;;;;;;;;;;;;;;;;;1028982;28;2899;-51
2022/08/03 02:18:19;;;;;;;;;;;;;;;;;;1030134;28;3249;-51
2022/08/03 02:18:51;;;;;;;;;;;;;;;;;;1029834;28;1739;-50
2022/08/03 02:19:22;;;;;;;;;;;;;;;;;;1030195;28;1347;-49
2022/08/03 02:19:55;;;;;;;;;;;;;;;;;;1028686;28;2777;-49
2022/08/03 02:20:26;;;;;;;;;;;;;;;;;;1029740;28;3952;-50
2022/08/03 02:20:57;;;;;;;;;;;;;;;;;;1028691;28;2347;-50
2022/08/03 02:21:28;;;;;;;;;;;;;;;;;;1028095;28;3487;-49
2022/08/03 02:21:59;;;;;;;;;;;;;;;;;;1028681;28;2222;-53
2022/08/03 02:22:29;;;;;;;;;;;;;;;;;;1030442;28;1831;-49
2022/08/03 02:23:00;;;;;;;;;;;;;;;;;;1028454;28;1728;-50
2022/08/03 02:23:30;;;;;;;;;;;;;;;;;;1030254;28;1557;-48
2022/08/03 02:24:01;;;;;;;;;;;;;;;;;;1033270;28;2033;-48
2022/08/03 02:24:31;;;;;;;;;;;;;;;;;;1033887;28;1899;-50
2022/08/03 02:25:01;;;;;;;;;;;;;;;;;;1033389;28;3564;-51
2022/08/03 02:25:33;;;;;;;;;;;;;;;;;;1033720;28;2866;-51
2022/08/03 02:26:05;;;;;;;;;;;;;;;;;;1031919;28;2270;-49
2022/08/03 02:26:37;;;;;;;;;;;;;;;;;;1034671;28;1757;-50
2022/08/03 02:27:13;;;;;;;;;;;;;;;;;;1033428;28;2330;-50
2022/08/03 02:27:52;;;;;;;;;;;;;;;;;;1032860;28;1831;-49
2022/08/03 02:28:25;;;;;;;;;;;;;;;;;;1030523;28;1860;-50
2022/08/03 02:28:58;;;;;;;;;;;;;;;;;;1030507;28;1681;-51
2022/08/03 02:29:31;;;;;;;;;;;;;;;;;;1029413;28;1678;-50
2022/08/03 02:30:04;;;;;;;;;;;;;;;;;;1030464;28;1576;-48
2022/08/03 02:30:38;;;;;;;;;;;;;;;;;;1029804;28;2597;-51
2022/08/03 02:31:15;;;;;;;;;;;;;;;;;;1028479;28;2988;-50
2022/08/03 02:31:46;;;;;;;;;;;;;;;;;;1029708;28;1744;-52
2022/08/03 02:32:19;;;;;;;;;;;;;;;;;;1029344;28;1740;-49
2022/08/03 02:32:54;;;;;;;;;;;;;;;;;;1029042;28;2565;-50
2022/08/03 02:33:31;;;;;;;;;;;;;;;;;;1029068;28;3318;-48
2022/08/03 02:34:04;;;;;;;;;;;;;;;;;;1030320;28;3664;-51
2022/08/03 02:34:34;;;;;;;;;;;;;;;;;;1030119;28;1902;-50
2022/08/03 02:35:06;;;;;;;;;;;;;;;;;;1030302;28;1599;-49
2022/08/03 02:35:37;;;;;;;;;;;;;;;;;;1032244;28;2954;-52
2022/08/03 02:36:09;;;;;;;;;;;;;;;;;;1033454;28;1683;-49
2022/08/03 02:36:41;;;;;;;;;;;;;;;;;;1032803;28;2171;-50
2022/08/03 02:37:11;;;;;;;;;;;;;;;;;;1031592;28;3297;-53
2022/08/03 02:37:44;;;;;;;;;;;;;;;;;;1029068;28;2227;-51
2022/08/03 02:38:17;;;;;;;;;;;;;;;;;;1029158;28;3675;-48
2022/08/03 02:38:50;;;;;;;;;;;;;;;;;;1030511;28;1402;-51
2022/08/03 02:39:23;;;;;;;;;;;;;;;;;;1029580;28;1805;-50
2022/08/03 02:39:59;;;;;;;;;;;;;;;;;;1029560;28;3247;-52
2022/08/03 02:40:30;;;;;;;;;;;;;;;;;;1029066;28;2204;-49
2022/08/03 02:41:03;;;;;;;;;;;;;;;;;;1029188;28;3445;-48
2022/08/03 02:41:39;;;;;;;;;;;;;;;;;;1028992;28;2468;-50
2022/08/03 02:42:10;;;;;;;;;;;;;;;;;;1029836;28;2064;-51
2022/08/03 02:42:42;;;;;;;;;;;;;;;;;;1027976;28;4000;-49
2022/08/03 02:43:16;;;;;;;;;;;;;;;;;;1028838;28;2428;-47
2022/08/03 02:43:48;;;;;;;;;;;;;;;;;;1030107;28;1714;-51
2022/08/03 02:44:22;;;;;;;;;;;;;;;;;;1030377;28;1698;-48
2022/08/03 02:44:55;;;;;;;;;;;;;;;;;;1030368;28;2628;-50
2022/08/03 02:45:26;;;;;;;;;;;;;;;;;;1028754;28;3093;-50
2022/08/03 02:45:56;;;;;;;;;;;;;;;;;;1030595;28;1658;-48
2022/08/03 02:46:29;;;;;;;;;;;;;;;;;;1029861;28;1907;-49
2022/08/03 02:47:03;;;;;;;;;;;;;;;;;;1030608;28;1667;-49
2022/08/03 02:47:35;;;;;;;;;;;;;;;;;;1033340;28;2886;-51
2022/08/03 02:48:06;;;;;;;;;;;;;;;;;;1033324;28;2847;-49
2022/08/03 02:48:36;;;;;;;;;;;;;;;;;;1033841;28;1566;-50
2022/08/03 02:49:07;;;;;;;;;;;;;;;;;;1032997;28;1670;-48
2022/08/03 02:49:39;;;;;;;;;;;;;;;;;;1030000;28;1723;-51
2022/08/03 02:50:11;;;;;;;;;;;;;;;;;;1028885;28;3047;-50
2022/08/03 02:50:43;;;;;;;;;;;;;;;;;;1030161;28;1051;-50
2022/08/03 02:51:15;;;;;;;;;;;;;;;;;;1029523;28;3262;-50
2022/08/03 02:51:46;;;;;;;;;;;;;;;;;;1030741;28;1678;-50
2022/08/03 02:52:16;;;;;;;;;;;;;;;;;;1029229;28;2300;-51
2022/08/03 02:52:47;;;;;;;;;;;;;;;;;;1030349;28;1475;-48
2022/08/03 02:53:18;;;;;;;;;;;;;;;;;;1029309;28;1795;-49
2022/08/03 02:53:49;;;;;;;;;;;;;;;;;;1030467;28;1610;-47
2022/08/03 02:54:20;;;;;;;;;;;;;;;;;;1029135;28;2794;-49
2022/08/03 02:54:52;;;;;;;;;;;;;;;;;;1029351;28;3199;-53
2022/08/03 02:55:23;;;;;;;;;;;;;;;;;;1028635;28;1950;-51
2022/08/03 02:55:54;;;;;;;;;;;;;;;;;;1033535;28;3288;-51
2022/08/03 02:56:24;;;;;;;;;;;;;;;;;;1032151;28;3003;-49
2022/08/03 02:56:55;;;;;;;;;;;;;;;;;;1033666;28;1985;-49
2022/08/03 02:57:27;;;;;;;;;;;;;;;;;;1033368;28;2703;-52
2022/08/03 02:57:58;;;;;;;;;;;;;;;;;;1032766;28;3005;-52
2022/08/03 02:58:29;;;;;;;;;;;;;;;;;;1033105;28;2109;-49
2022/08/03 02:59:00;;;;;;;;;;;;;;;;;;1032911;28;1794;-48
2022/08/03 02:59:31;;;;;;;;;;;;;;;;;;1030376;28;1618;-52
2022/08/03 03:00:01;;;;;;;;;;;;;;;;;;1029744;28;1787;-48
2022/08/03 03:00:40;;;;;;;;;;;;;;;;;;1029567;28;3358;-50
2022/08/03 03:01:10;;;;;;;;;;;;;;;;;;1030030;28;2314;-50
2022/08/03 03:01:41;;;;;;;;;;;;;;;;;;1030220;28;1852;-50
2022/08/03 03:02:13;;;;;;;;;;;;;;;;;;1029456;28;2140;-49
2022/08/03 03:02:44;;;;;;;;;;;;;;;;;;1030848;28;1654;-49
2022/08/03 03:03:14;;;;;;;;;;;;;;;;;;1029519;28;1355;-52
2022/08/03 03:03:45;;;;;;;;;;;;;;;;;;1032614;28;1672;-48
2022/08/03 03:04:15;;;;;;;;;;;;;;;;;;1033691;28;1560;-51
2022/08/03 03:04:47;;;;;;;;;;;;;;;;;;1032073;28;3569;-49
2022/08/03 03:05:18;;;;;;;;;;;;;;;;;;1033226;28;1716;-48
2022/08/03 03:05:48;;;;;;;;;;;;;;;;;;1033491;28;1689;-51
2022/08/03 03:06:20;;;;;;;;;;;;;;;;;;1033155;28;3004;-50
2022/08/03 03:06:50;;;;;;;;;;;;;;;;;;1033528;28;1707;-49
2022/08/03 03:07:27;;;;;;;;;;;;;;;;;;1032684;28;1784;-48
2022/08/03 03:08:04;;;;;;;;;;;;;;;;;;1029476;28;3285;-51
2022/08/03 03:08:42;;;;;;;;;;;;;;;;;;1030203;28;1718;-50
2022/08/03 03:09:13;;;;;;;;;;;;;;;;;;1029849;28;1838;-48
2022/08/03 03:09:43;;;;;;;;;;;;;;;;;;1030660;28;1704;-50
2022/08/03 03:10:14;;;;;;;;;;;;;;;;;;1028722;28;2743;-50
2022/08/03 03:10:45;;;;;;;;;;;;;;;;;;1028129;28;2919;-48
2022/08/03 03:11:16;;;;;;;;;;;;;;;;;;1028908;28;4188;-50
2022/08/03 03:11:48;;;;;;;;;;;;;;;;;;1028319;28;3378;-51
2022/08/03 03:12:19;;;;;;;;;;;;;;;;;;1024971;28;2289;-50
2022/08/03 03:12:51;;;;;;;;;;;;;;;;;;1021616;28;1866;-50
2022/08/03 03:13:21;;;;;;;;;;;;;;;;;;1021865;28;1674;-51
2022/08/03 03:13:52;;;;;;;;;;;;;;;;;;1021712;28;1738;-52
2022/08/03 03:14:23;;;;;;;;;;;;;;;;;;1025280;28;2413;-49
2022/08/03 03:14:53;;;;;;;;;;;;;;;;;;1029280;28;2592;-50
2022/08/03 03:15:25;;;;;;;;;;;;;;;;;;1030600;28;2655;-50
2022/08/03 03:15:56;;;;;;;;;;;;;;;;;;1029510;28;1909;-50
2022/08/03 03:16:27;;;;;;;;;;;;;;;;;;1029574;28;3047;-50
2022/08/03 03:16:57;;;;;;;;;;;;;;;;;;1029118;28;1821;-50
2022/08/03 03:17:29;;;;;;;;;;;;;;;;;;1030109;28;1537;-48
2022/08/03 03:18:00;;;;;;;;;;;;;;;;;;1028531;28;2210;-47
2022/08/03 03:18:31;;;;;;;;;;;;;;;;;;1030353;28;1625;-51
2022/08/03 03:19:01;;;;;;;;;;;;;;;;;;1029211;28;4119;-50
2022/08/03 03:19:32;;;;;;;;;;;;;;;;;;1028224;28;3126;-52
2022/08/03 03:20:03;;;;;;;;;;;;;;;;;;1029795;28;2054;-49
2022/08/03 03:20:34;;;;;;;;;;;;;;;;;;1029720;28;1914;-50
2022/08/03 03:21:06;;;;;;;;;;;;;;;;;;1029968;28;1905;-51
2022/08/03 03:21:37;;;;;;;;;;;;;;;;;;1029433;28;1871;-50
2022/08/03 03:22:07;;;;;;;;;;;;;;;;;;1029650;28;1580;-49
2022/08/03 03:22:38;;;;;;;;;;;;;;;;;;1030636;28;1915;-50
2022/08/03 03:23:09;;;;;;;;;;;;;;;;;;1030048;28;1835;-48
2022/08/03 03:23:40;;;;;;;;;;;;;;;;;;1029833;28;1719;-51
2022/08/03 03:24:10;;;;;;;;;;;;;;;;;;1029481;28;1625;-49
2022/08/03 03:24:41;;;;;;;;;;;;;;;;;;1030284;28;1725;-50
2022/08/03 03:25:12;;;;;;;;;;;;;;;;;;1028969;28;3457;-49
2022/08/03 03:25:42;;;;;;;;;;;;;;;;;;1030437;28;1793;-47
2022/08/03 03:26:13;;;;;;;;;;;;;;;;;;1029298;28;1955;-50
2022/08/03 03:26:50;;;;;;;;;;;;;;;;;;1028732;28;2440;-49
2022/08/03 03:27:20;;;;;;;;;;;;;;;;;;1029446;28;1996;-49
2022/08/03 03:27:50;;;;;;;;;;;;;;;;;;1030686;28;1754;-49
2022/08/03 03:28:24;;;;;;;;;;;;;;;;;;1029268;28;3558;-50
2022/08/03 03:28:54;;;;;;;;;;;;;;;;;;1027978;28;4714;-48
2022/08/03 03:29:25;;;;;;;;;;;;;;;;;;1030080;28;1373;-51
2022/08/03 03:29:56;;;;;;;;;;;;;;;;;;1029056;28;3403;-51
2022/08/03 03:30:27;;;;;;;;;;;;;;;;;;1027736;28;3146;-51
2022/08/03 03:30:57;;;;;;;;;;;;;;;;;;1029924;28;1754;-51
2022/08/03 03:31:28;;;;;;;;;;;;;;;;;;1028792;28;2829;-52
2022/08/03 03:31:59;;;;;;;;;;;;;;;;;;1029938;28;1606;-51
2022/08/03 03:32:29;;;;;;;;;;;;;;;;;;1029608;28;2161;-49
2022/08/03 03:32:59;;;;;;;;;;;;;;;;;;1029352;28;2206;-49
2022/08/03 03:33:30;;;;;;;;;;;;;;;;;;1029886;28;3183;-49
2022/08/03 03:34:00;;;;;;;;;;;;;;;;;;1030955;28;1391;-50
2022/08/03 03:34:31;;;;;;;;;;;;;;;;;;1028426;28;2034;-50
2022/08/03 03:35:03;;;;;;;;;;;;;;;;;;1030143;28;2312;-52
2022/08/03 03:35:33;;;;;;;;;;;;;;;;;;1027503;28;3375;-49
2022/08/03 03:36:05;;;;;;;;;;;;;;;;;;1027169;28;3256;-50
2022/08/03 03:36:36;;;;;;;;;;;;;;;;;;1028781;28;3303;-51
2022/08/03 03:37:06;;;;;;;;;;;;;;;;;;1029782;28;1606;-50
2022/08/03 03:37:36;;;;;;;;;;;;;;;;;;1028469;28;3382;-49
2022/08/03 03:38:07;;;;;;;;;;;;;;;;;;1024899;28;3027;-48
2022/08/03 03:38:37;;;;;;;;;;;;;;;;;;1025887;28;1782;-50
2022/08/03 03:39:07;;;;;;;;;;;;;;;;;;1023978;28;3769;-50
2022/08/03 03:39:38;;;;;;;;;;;;;;;;;;1025215;28;2538;-52
2022/08/03 03:40:08;;;;;;;;;;;;;;;;;;1029345;28;3271;-51
2022/08/03 03:40:39;;;;;;;;;;;;;;;;;;1029677;28;2250;-50
2022/08/03 03:41:09;;;;;;;;;;;;;;;;;;1030274;28;1681;-49
2022/08/03 03:41:40;;;;;;;;;;;;;;;;;;1029231;28;2222;-52
2022/08/03 03:42:10;;;;;;;;;;;;;;;;;;1029644;28;3079;-49
2022/08/03 03:42:41;;;;;;;;;;;;;;;;;;1029616;28;1917;-50
2022/08/03 03:43:11;;;;;;;;;;;;;;;;;;1030038;28;1692;-49
2022/08/03 03:43:42;;;;;;;;;;;;;;;;;;1030027;28;1880;-48
2022/08/03 03:44:12;;;;;;;;;;;;;;;;;;1029543;28;3527;-50
2022/08/03 03:44:42;;;;;;;;;;;;;;;;;;1030163;28;1662;-50